Time,TemperatureF,DewpointF,PressureIn,WindDirection,WindDirectionDegrees,WindSpeedMPH,WindSpeedGustMPH,Humidity,HourlyPrecipIn,Conditions,Clouds,dailyrainin,SoftwareType,DateUTC
2013-02-06 00:01:00,36.0,9.0,-100.00,NNW,342,4.0,11.0,32,-99.99,,,-99.99,,2013-02-06 08:01:00,
2013-02-06 00:11:00,36.0,9.0,-100.00,NNW,342,4.0,11.0,32,-99.99,,,-99.99,,2013-02-06 08:11:00,
2013-02-06 00:21:00,35.0,13.0,-100.00,WSW,251,9.0,17.0,39,-99.99,,,-99.99,,2013-02-06 08:21:00,
2013-02-06 00:31:00,35.0,13.0,-100.00,WSW,251,9.0,17.0,39,-99.99,,,-99.99,,2013-02-06 08:31:00,
2013-02-06 00:41:00,35.0,12.0,-100.00,WSW,256,6.0,15.0,39,-99.99,,,-99.99,,2013-02-06 08:41:00,
2013-02-06 00:53:00,35.0,12.0,-100.00,WSW,256,6.0,15.0,39,-99.99,,,-99.99,,2013-02-06 08:53:00,
2013-02-06 01:01:00,34.0,13.0,-100.00,SW,219,4.0,9.0,41,-99.99,,,-99.99,,2013-02-06 09:01:00,
2013-02-06 01:11:00,34.0,13.0,-100.00,SW,219,4.0,9.0,41,-99.99,,,-99.99,,2013-02-06 09:11:00,
2013-02-06 01:21:00,34.0,13.0,-100.00,SW,233,3.0,9.0,42,-99.99,,,-99.99,,2013-02-06 09:21:00,
2013-02-06 01:31:00,34.0,13.0,-100.00,SW,233,3.0,9.0,42,-99.99,,,-99.99,,2013-02-06 09:31:00,
2013-02-06 01:41:00,32.0,12.0,-100.00,SSW,203,2.0,6.0,42,-99.99,,,-99.99,,2013-02-06 09:41:00,
2013-02-06 01:52:00,32.0,12.0,-100.00,SSW,203,2.0,6.0,42,-99.99,,,-99.99,,2013-02-06 09:52:00,
2013-02-06 02:01:00,32.0,12.0,-100.00,North,353,1.0,3.0,44,-99.99,,,-99.99,,2013-02-06 10:01:00,
2013-02-06 02:11:00,32.0,12.0,-100.00,North,353,1.0,3.0,44,-99.99,,,-99.99,,2013-02-06 10:11:00,
2013-02-06 02:21:00,31.0,12.0,-100.00,WSW,241,4.0,7.0,45,-99.99,,,-99.99,,2013-02-06 10:21:00,
2013-02-06 02:31:00,31.0,12.0,-100.00,WSW,241,4.0,7.0,45,-99.99,,,-99.99,,2013-02-06 10:31:00,
2013-02-06 02:41:00,33.0,7.0,-100.00,WSW,253,7.0,13.0,33,-99.99,,,-99.99,,2013-02-06 10:41:00,
2013-02-06 02:52:00,33.0,7.0,-100.00,WSW,253,7.0,13.0,33,-99.99,,,-99.99,,2013-02-06 10:52:00,
2013-02-06 03:01:00,32.0,9.0,-100.00,WSW,241,4.0,9.0,37,-99.99,,,-99.99,,2013-02-06 11:01:00,
2013-02-06 03:11:00,32.0,9.0,-100.00,WSW,241,4.0,9.0,37,-99.99,,,-99.99,,2013-02-06 11:11:00,
2013-02-06 03:22:00,32.0,9.0,-100.00,WSW,241,4.0,9.0,37,-99.99,,,-99.99,,2013-02-06 11:22:00,
2013-02-06 03:42:00,30.0,10.0,-100.00,SW,232,2.0,6.0,42,-99.99,,,-99.99,,2013-02-06 11:42:00,
2013-02-06 03:53:00,30.0,10.0,-100.00,SW,232,2.0,6.0,42,-99.99,,,-99.99,,2013-02-06 11:53:00,
2013-02-06 04:01:00,30.0,10.0,-100.00,SW,232,2.0,6.0,42,-99.99,,,-99.99,,2013-02-06 12:01:00,
2013-02-06 04:22:00,29.0,13.0,-100.00,SW,217,4.0,9.0,49,-99.99,,,-99.99,,2013-02-06 12:22:00,
2013-02-06 04:32:00,29.0,13.0,-100.00,SW,217,4.0,9.0,49,-99.99,,,-99.99,,2013-02-06 12:32:00,
2013-02-06 04:42:00,31.0,12.0,-100.00,SW,232,6.0,13.0,45,-99.99,,,-99.99,,2013-02-06 12:42:00,
2013-02-06 04:52:00,31.0,12.0,-100.00,SW,232,6.0,13.0,45,-99.99,,,-99.99,,2013-02-06 12:52:00,
2013-02-06 05:01:00,27.0,10.0,-100.00,NE,37,3.0,6.0,47,-99.99,,,-99.99,,2013-02-06 13:01:00,
2013-02-06 05:11:00,27.0,10.0,-100.00,NE,37,3.0,6.0,47,-99.99,,,-99.99,,2013-02-06 13:11:00,
2013-02-06 05:21:00,29.0,12.0,-100.00,East,80,0.0,3.0,48,-99.99,,,-99.99,,2013-02-06 13:21:00,
2013-02-06 05:31:00,29.0,12.0,-100.00,East,80,0.0,3.0,48,-99.99,,,-99.99,,2013-02-06 13:31:00,
2013-02-06 05:42:00,28.0,9.0,-100.00,NNE,28,2.0,4.0,44,-99.99,,,-99.99,,2013-02-06 13:42:00,
2013-02-06 05:52:00,28.0,9.0,-100.00,NNE,28,2.0,4.0,44,-99.99,,,-99.99,,2013-02-06 13:52:00,
2013-02-06 06:01:00,28.0,10.0,-100.00,SE,126,1.0,6.0,46,-99.99,,,-99.99,,2013-02-06 14:01:00,
2013-02-06 06:11:00,28.0,10.0,-100.00,SE,126,1.0,6.0,46,-99.99,,,-99.99,,2013-02-06 14:11:00,
2013-02-06 06:21:00,28.0,10.0,-100.00,SE,126,1.0,6.0,46,-99.99,,,-99.99,,2013-02-06 14:21:00,
2013-02-06 06:42:00,28.0,9.0,-100.00,North,354,3.0,6.0,44,-99.99,,,-99.99,,2013-02-06 14:42:00,
2013-02-06 06:52:00,28.0,9.0,-100.00,North,354,3.0,6.0,44,-99.99,,,-99.99,,2013-02-06 14:52:00,
2013-02-06 07:01:00,29.0,13.0,-100.00,WSW,239,2.0,7.0,50,-99.99,,,-99.99,,2013-02-06 15:01:00,
2013-02-06 07:11:00,29.0,13.0,-100.00,WSW,239,2.0,7.0,50,-99.99,,,-99.99,,2013-02-06 15:11:00,
2013-02-06 07:21:00,31.0,10.0,-100.00,West,260,5.0,8.0,42,-99.99,,,-99.99,,2013-02-06 15:21:00,
2013-02-06 07:31:00,31.0,10.0,-100.00,West,260,5.0,8.0,42,-99.99,,,-99.99,,2013-02-06 15:31:00,
2013-02-06 07:41:00,29.0,11.0,-100.00,WNW,295,3.0,5.0,46,-99.99,,,-99.99,,2013-02-06 15:41:00,
2013-02-06 07:52:00,29.0,11.0,-100.00,WNW,295,3.0,5.0,46,-99.99,,,-99.99,,2013-02-06 15:52:00,
2013-02-06 08:01:00,31.0,10.0,-100.00,NNW,332,4.0,6.0,40,-99.99,,,-99.99,,2013-02-06 16:01:00,
2013-02-06 08:21:00,31.0,14.0,-100.00,South,186,1.0,5.0,49,-99.99,,,-99.99,,2013-02-06 16:21:00,
2013-02-06 08:32:00,31.0,14.0,-100.00,South,186,1.0,5.0,49,-99.99,,,-99.99,,2013-02-06 16:32:00,
2013-02-06 08:42:00,32.0,12.0,-100.00,SSW,209,3.0,6.0,44,-99.99,,,-99.99,,2013-02-06 16:42:00,
2013-02-06 08:52:00,32.0,12.0,-100.00,SSW,209,3.0,6.0,44,-99.99,,,-99.99,,2013-02-06 16:52:00,
2013-02-06 09:01:00,32.0,12.0,-100.00,SSW,196,0.0,3.0,43,-99.99,,,-99.99,,2013-02-06 17:01:00,
2013-02-06 09:21:00,32.0,12.0,-100.00,SSE,168,3.0,4.0,43,-99.99,,,-99.99,,2013-02-06 17:21:00,
2013-02-06 09:32:00,32.0,12.0,-100.00,SSE,168,3.0,4.0,43,-99.99,,,-99.99,,2013-02-06 17:32:00,
2013-02-06 09:41:00,33.0,12.0,-100.00,South,182,2.0,4.0,40,-99.99,,,-99.99,,2013-02-06 17:41:00,
2013-02-06 09:52:00,33.0,12.0,-100.00,South,182,2.0,4.0,40,-99.99,,,-99.99,,2013-02-06 17:52:00,
2013-02-06 10:01:00,33.0,12.0,-100.00,South,182,2.0,4.0,40,-99.99,,,-99.99,,2013-02-06 18:01:00,
2013-02-06 10:22:00,33.0,12.0,-100.00,South,175,4.0,8.0,40,-99.99,,,-99.99,,2013-02-06 18:22:00,
2013-02-06 10:32:00,33.0,12.0,-100.00,South,175,4.0,8.0,40,-99.99,,,-99.99,,2013-02-06 18:32:00,
2013-02-06 10:41:00,33.0,12.0,-100.00,South,175,4.0,8.0,40,-99.99,,,-99.99,,2013-02-06 18:41:00,
2013-02-06 11:01:00,36.0,11.0,-100.00,SSE,168,2.0,7.0,35,-99.99,,,-99.99,,2013-02-06 19:01:00,
2013-02-06 11:11:00,36.0,11.0,-100.00,SSE,168,2.0,7.0,35,-99.99,,,-99.99,,2013-02-06 19:11:00,
2013-02-06 11:21:00,38.0,10.0,-100.00,SSE,167,3.0,6.0,32,-99.99,,,-99.99,,2013-02-06 19:21:00,
2013-02-06 11:31:00,38.0,10.0,-100.00,SSE,167,3.0,6.0,32,-99.99,,,-99.99,,2013-02-06 19:31:00,
2013-02-06 11:41:00,40.0,11.0,-100.00,ESE,113,2.0,7.0,31,-99.99,,,-99.99,,2013-02-06 19:41:00,
2013-02-06 11:52:00,40.0,11.0,-100.00,ESE,113,2.0,7.0,31,-99.99,,,-99.99,,2013-02-06 19:52:00,
2013-02-06 12:01:00,40.0,11.0,-100.00,ESE,113,2.0,7.0,31,-99.99,,,-99.99,,2013-02-06 20:01:00,
2013-02-06 12:21:00,41.0,12.0,-100.00,ENE,59,2.0,7.0,30,-99.99,,,-99.99,,2013-02-06 20:21:00,
2013-02-06 12:31:00,41.0,12.0,-100.00,ENE,59,2.0,7.0,30,-99.99,,,-99.99,,2013-02-06 20:31:00,
2013-02-06 12:41:00,42.0,12.0,-100.00,ESE,103,2.0,7.0,28,-99.99,,,-99.99,,2013-02-06 20:41:00,
2013-02-06 12:52:00,42.0,12.0,-100.00,ESE,103,2.0,7.0,28,-99.99,,,-99.99,,2013-02-06 20:52:00,
2013-02-06 13:01:00,43.0,12.0,-100.00,East,89,2.0,7.0,28,-99.99,,,-99.99,,2013-02-06 21:01:00,
2013-02-06 13:11:00,43.0,12.0,-100.00,East,89,2.0,7.0,28,-99.99,,,-99.99,,2013-02-06 21:11:00,
2013-02-06 13:21:00,43.0,12.0,-100.00,East,89,2.0,7.0,28,-99.99,,,-99.99,,2013-02-06 21:21:00,
2013-02-06 14:01:00,44.0,8.0,-100.00,South,179,4.0,8.0,23,-99.99,,,-99.99,,2013-02-06 22:01:00,
2013-02-06 14:11:00,44.0,8.0,-100.00,South,179,4.0,8.0,23,-99.99,,,-99.99,,2013-02-06 22:11:00,
2013-02-06 14:21:00,46.0,8.0,-100.00,SE,131,3.0,6.0,21,-99.99,,,-99.99,,2013-02-06 22:21:00,
2013-02-06 14:31:00,46.0,8.0,-100.00,SE,131,3.0,6.0,21,-99.99,,,-99.99,,2013-02-06 22:31:00,
2013-02-06 14:41:00,46.0,3.0,-100.00,SSE,158,3.0,6.0,16,-99.99,,,-99.99,,2013-02-06 22:41:00,
2013-02-06 14:52:00,46.0,3.0,-100.00,SSE,158,3.0,6.0,16,-99.99,,,-99.99,,2013-02-06 22:52:00,
2013-02-06 15:01:00,47.0,2.0,-100.00,SSE,151,3.0,7.0,15,-99.99,,,-99.99,,2013-02-06 23:01:00,
2013-02-06 15:11:00,47.0,2.0,-100.00,SSE,151,3.0,7.0,15,-99.99,,,-99.99,,2013-02-06 23:11:00,
2013-02-06 15:21:00,47.0,2.0,-100.00,ESE,116,3.0,7.0,15,-99.99,,,-99.99,,2013-02-06 23:21:00,
2013-02-06 15:31:00,47.0,2.0,-100.00,ESE,116,3.0,7.0,15,-99.99,,,-99.99,,2013-02-06 23:31:00,
2013-02-06 15:41:00,47.0,0.0,-100.00,SE,144,3.0,7.0,14,-99.99,,,-99.99,,2013-02-06 23:41:00,
2013-02-06 15:52:00,47.0,0.0,-100.00,SE,144,3.0,7.0,14,-99.99,,,-99.99,,2013-02-06 23:52:00,
2013-02-06 16:01:00,47.0,0.0,-100.00,SE,144,3.0,7.0,14,-99.99,,,-99.99,,2013-02-07 00:01:00,
2013-02-06 16:21:00,47.0,5.0,-100.00,SSE,148,2.0,6.0,17,-99.99,,,-99.99,,2013-02-07 00:21:00,
2013-02-06 16:31:00,47.0,5.0,-100.00,SSE,148,2.0,6.0,17,-99.99,,,-99.99,,2013-02-07 00:31:00,
2013-02-06 16:41:00,48.0,4.0,-100.00,SE,133,1.0,4.0,16,-99.99,,,-99.99,,2013-02-07 00:41:00,
2013-02-06 16:52:00,48.0,4.0,-100.00,SE,133,1.0,4.0,16,-99.99,,,-99.99,,2013-02-07 00:52:00,
2013-02-06 17:01:00,48.0,4.0,-100.00,SE,133,1.0,4.0,16,-99.99,,,-99.99,,2013-02-07 01:01:00,
2013-02-06 17:42:00,43.0,5.0,-100.00,WSW,251,1.0,3.0,21,-99.99,,,-99.99,,2013-02-07 01:42:00,
2013-02-06 17:52:00,43.0,5.0,-100.00,WSW,251,1.0,3.0,21,-99.99,,,-99.99,,2013-02-07 01:52:00,
2013-02-06 18:01:00,41.0,3.0,-100.00,West,261,2.0,4.0,20,-99.99,,,-99.99,,2013-02-07 02:01:00,
2013-02-06 18:21:00,41.0,9.0,-100.00,WSW,240,1.0,3.0,26,-99.99,,,-99.99,,2013-02-07 02:21:00,
2013-02-06 18:31:00,41.0,9.0,-100.00,WSW,240,1.0,3.0,26,-99.99,,,-99.99,,2013-02-07 02:31:00,
2013-02-06 18:41:00,41.0,9.0,-100.00,WSW,240,1.0,3.0,26,-99.99,,,-99.99,,2013-02-07 02:41:00,
2013-02-06 19:02:00,43.0,14.0,-100.00,WSW,256,9.0,15.0,30,-99.99,,,-99.99,,2013-02-07 03:02:00,
2013-02-06 19:11:00,43.0,14.0,-100.00,WSW,256,9.0,15.0,30,-99.99,,,-99.99,,2013-02-07 03:11:00,
2013-02-06 19:21:00,41.0,15.0,-100.00,WSW,254,7.0,11.0,33,-99.99,,,-99.99,,2013-02-07 03:21:00,
2013-02-06 19:31:00,41.0,15.0,-100.00,WSW,254,7.0,11.0,33,-99.99,,,-99.99,,2013-02-07 03:31:00,
2013-02-06 19:41:00,41.0,17.0,-100.00,WSW,250,7.0,13.0,37,-99.99,,,-99.99,,2013-02-07 03:41:00,
2013-02-06 19:52:00,41.0,17.0,-100.00,WSW,250,7.0,13.0,37,-99.99,,,-99.99,,2013-02-07 03:52:00,
2013-02-06 20:01:00,40.0,16.0,-100.00,WSW,240,6.0,12.0,37,-99.99,,,-99.99,,2013-02-07 04:01:00,
2013-02-06 20:11:00,40.0,16.0,-100.00,WSW,240,6.0,12.0,37,-99.99,,,-99.99,,2013-02-07 04:11:00,
2013-02-06 20:22:00,40.0,16.0,-100.00,WSW,240,6.0,12.0,37,-99.99,,,-99.99,,2013-02-07 04:22:00,
2013-02-06 21:01:00,42.0,10.0,-100.00,WSW,257,5.0,8.0,26,-99.99,,,-99.99,,2013-02-07 05:01:00,
2013-02-06 21:21:00,41.0,8.0,-100.00,West,260,6.0,11.0,25,-99.99,,,-99.99,,2013-02-07 05:21:00,
2013-02-06 21:32:00,41.0,8.0,-100.00,West,260,6.0,11.0,25,-99.99,,,-99.99,,2013-02-07 05:32:00,
2013-02-06 21:42:00,42.0,8.0,-100.00,WSW,251,8.0,19.0,24,-99.99,,,-99.99,,2013-02-07 05:42:00,
2013-02-06 21:52:00,42.0,8.0,-100.00,WSW,251,8.0,19.0,24,-99.99,,,-99.99,,2013-02-07 05:52:00,
2013-02-06 22:02:00,41.0,7.0,-100.00,WSW,254,9.0,19.0,23,-99.99,,,-99.99,,2013-02-07 06:02:00,
2013-02-06 23:01:00,41.0,2.0,-100.00,WSW,243,9.0,17.0,19,-99.99,,,-99.99,,2013-02-07 07:01:00,
2013-02-06 23:11:00,41.0,2.0,-100.00,WSW,243,9.0,17.0,19,-99.99,,,-99.99,,2013-02-07 07:11:00,
2013-02-06 23:21:00,39.0,4.0,-100.00,SW,219,4.0,9.0,22,-99.99,,,-99.99,,2013-02-07 07:21:00,
2013-02-06 23:31:00,39.0,4.0,-100.00,SW,219,4.0,9.0,22,-99.99,,,-99.99,,2013-02-07 07:31:00,
2013-02-06 23:41:00,38.0,5.0,-100.00,SW,224,6.0,13.0,25,-99.99,,,-99.99,,2013-02-07 07:41:00,
2013-02-06 23:52:00,38.0,5.0,-100.00,SW,224,6.0,13.0,25,-99.99,,,-99.99,,2013-02-07 07:52:00,